Flight Track Log - Related Links

Times and Time Zones

All times are in EDT time to prevent confusion due to time zone crossing. See the C-GRDF flight status page for this flight to view local times or setup timezone preferences in your user account.

Time Position Orientation Groundspeed Altitude Reporting Facility
EDT Latitude Longitude Course Direction KTS MPH feet Rate Location/Type
Wed 07:37:48 PM 47.1500 -67.7667 52° Northeast 170 196 4,800  Level Moncton Center
Wed 07:38:04 PM 47.1561 -67.7550 52° Northeast 258 297 5,200 2,450 Climbing Boston Center
Wed 07:39:48 PM 47.0500 -67.6667 150° Southeast 210 242 9,700 2,451 Climbing Moncton Center
Wed 07:40:48 PM 47.0000 -67.6167 146° Southeast 220 253 11,900 2,450 Climbing Moncton Center
Wed 07:41:48 PM 46.9500 -67.5667 146° Southeast 230 265 14,600 1,600 Climbing Moncton Center
Wed 07:42:48 PM 46.8833 -67.5000 146° Southeast 250 288 15,100 250 Climbing Moncton Center
Wed 07:43:48 PM 46.8167 -67.4500 153° Southeast 300 345 15,100  Level Moncton Center
Wed 07:44:48 PM 46.7333 -67.3833 151° Southeast 320 368 15,100  Level Moncton Center
Wed 07:45:48 PM 46.6667 -67.3000 139° Southeast 320 368 15,100  Level Moncton Center
Wed 07:46:48 PM 46.6000 -67.2167 139° Southeast 330 380 15,100 -550 Level Moncton Center
Wed 07:47:48 PM 46.5167 -67.1500 151° Southeast 330 380 14,000 -1,500 Descending Moncton Center
Wed 07:48:48 PM 46.4500 -67.1000 153° Southeast 320 368 12,100 -1,950 Descending Moncton Center
Wed 07:49:48 PM 46.3667 -67.0167 145° Southeast 320 368 10,100 -1,750 Descending Moncton Center
Wed 07:50:48 PM 46.3000 -66.9333 139° Southeast 300 345 8,600 -1,250 Descending Moncton Center
Wed 07:51:48 PM 46.2333 -66.8833 153° Southeast 290 334 7,600 -1,200 Descending Moncton Center
Wed 07:52:48 PM 46.1667 -66.8167 145° Southeast 280 322 6,200 -1,150 Descending Moncton Center
Wed 07:53:48 PM 46.1000 -66.7667 153° Southeast 260 299 5,300 -1,100 Descending Moncton Center
Wed 07:54:48 PM 46.0500 -66.7167 145° Southeast 250 288 4,000 -1,250 Descending Moncton Center
Wed 07:55:48 PM 45.9833 -66.6667 152° Southeast 250 288 2,800 -950 Descending Moncton Center
Wed 07:56:48 PM 45.9333 -66.5833 131° Southeast 240 276 2,100 -500 Descending Moncton Center
Wed 07:57:48 PM 45.8833 -66.5333 145° Southeast 230 265 1,800 -300 Descending Moncton Center
Wed 07:59:00 PM 45.8667 -66.5333 145° Southeast  Level FlightAware Approximate
Wed 08:06:00 PM 45.8689 -66.5372 145° Southeast  Level Estimated

Login

Don't have an account? Register now (free) for customized features, flight alerts, and more!